Addison, Maine
Current Conditions -  °F | °C
As of 2:55 AM on Wednesday 26 Nov 2014 (Local Time) from KBHB Reporting Station
Clear Clear  
Wind Chill: 45°   Ceiling: Unl
Heat Index: 45°   Visibility: 10mi
Dew Point: 28°   Wind: 0mph
Humidity: 53%   Direction: NA
Pressure: 30.11"   Gusts: NA
Location:  44.62°N, 67.74°W
Report Text: KBHB 260755Z AUTO 00000KT 10SM CLR 07/M02 A3011 RMK AO1
Loading
Personal Weather Stations






























Interactive Weather Map New forecast layout! Learn more

10-Day Weather Forecast

Advertisements
Track Severe Weather on mobile